createdAt,value
2023-04-07T00:00:52.595Z,222.74
2023-04-07T00:01:52.753Z,216.87
2023-04-07T00:02:52.697Z,214.94
2023-04-07T00:03:52.963Z,211.92
2023-04-07T00:04:52.764Z,207.98
2023-04-07T00:05:52.773Z,204.02
2023-04-07T00:06:52.823Z,200.47
2023-04-07T00:07:57.010Z,197.46
2023-04-07T00:08:52.851Z,196.55
2023-04-07T00:09:52.862Z,194.34
2023-04-07T00:10:52.859Z,193.07
2023-04-07T00:11:52.837Z,191.73
2023-04-07T00:12:52.920Z,191.36
2023-04-07T00:13:53.178Z,191.66
2023-04-07T00:14:52.839Z,193.29
2023-04-07T00:15:52.859Z,197.59
2023-04-07T00:16:52.818Z,199.58
2023-04-07T00:17:52.864Z,202.82
2023-04-07T00:18:52.804Z,207.56
2023-04-07T00:19:52.821Z,212.93
2023-04-07T00:20:52.799Z,216.99
2023-04-07T00:21:52.799Z,218.45
2023-04-07T00:22:52.775Z,215.75
2023-04-07T00:23:53.011Z,211.00
2023-04-07T00:24:52.767Z,208.77
2023-04-07T00:25:52.773Z,206.89
2023-04-07T00:26:52.755Z,203.64
2023-04-07T00:27:52.734Z,202.16
2023-04-07T00:28:52.739Z,201.52
2023-04-07T00:29:52.714Z,199.91
2023-04-07T00:30:52.774Z,195.86
2023-04-07T00:31:52.713Z,196.19
2023-04-07T00:32:52.745Z,199.96
2023-04-07T00:33:53.023Z,206.22
2023-04-07T00:34:52.741Z,210.96
2023-04-07T00:35:52.849Z,215.62
2023-04-07T00:36:52.787Z,221.66
2023-04-07T00:37:52.821Z,229.90
2023-04-07T00:38:52.862Z,233.07
2023-04-07T00:39:52.881Z,233.13
2023-04-07T00:40:52.900Z,234.17
2023-04-07T00:41:52.923Z,234.40
2023-04-07T00:42:52.961Z,234.62
2023-04-07T00:43:53.356Z,235.13
2023-04-07T00:44:53.031Z,232.84
2023-04-07T00:45:53.052Z,231.96
2023-04-07T00:46:53.113Z,228.73
2023-04-07T00:47:53.151Z,219.47
2023-04-07T00:48:53.174Z,210.83
2023-04-07T00:49:53.202Z,208.91
2023-04-07T00:50:53.232Z,211.84
2023-04-07T00:51:53.280Z,211.62
2023-04-07T00:52:53.318Z,211.17
2023-04-07T00:53:53.620Z,211.65
2023-04-07T00:54:53.398Z,211.47
2023-04-07T00:55:53.432Z,211.05
2023-04-07T00:56:53.458Z,212.90
2023-04-07T00:57:53.467Z,212.89
2023-04-07T00:58:53.485Z,213.21
2023-04-07T00:59:53.507Z,215.16
2023-04-07T01:00:53.537Z,216.20
2023-04-07T01:01:53.677Z,216.99
2023-04-07T01:02:53.769Z,218.96
2023-04-07T01:03:54.034Z,221.42
2023-04-07T01:04:53.746Z,223.31
2023-04-07T01:05:53.628Z,228.19
2023-04-07T01:06:53.629Z,240.16
2023-04-07T01:07:53.613Z,252.44
2023-04-07T01:08:53.609Z,257.14
2023-04-07T01:09:53.654Z,253.64
2023-04-07T01:10:53.620Z,247.97
2023-04-07T01:11:53.618Z,245.18
2023-04-07T01:12:53.618Z,242.05
2023-04-07T01:13:53.882Z,241.15
2023-04-07T01:14:53.630Z,238.51
2023-04-07T01:15:53.668Z,228.05
2023-04-07T01:16:55.154Z,224.04
2023-04-07T01:17:53.633Z,225.56
2023-04-07T01:18:53.634Z,225.23
2023-04-07T01:19:53.651Z,219.03
2023-04-07T01:20:53.658Z,215.83
2023-04-07T01:21:53.655Z,209.77
2023-04-07T01:22:53.667Z,205.44
2023-04-07T01:23:53.866Z,203.62
2023-04-07T01:24:53.719Z,202.09
2023-04-07T01:25:53.764Z,200.44
2023-04-07T01:26:53.822Z,199.54
2023-04-07T01:27:53.816Z,196.81
2023-04-07T01:28:53.847Z,195.79
2023-04-07T01:29:53.883Z,196.32
2023-04-07T01:30:53.904Z,196.06
2023-04-07T01:31:53.937Z,192.49
2023-04-07T01:32:53.965Z,189.47
2023-04-07T01:33:54.168Z,188.47
2023-04-07T01:34:53.930Z,186.63
2023-04-07T01:35:53.949Z,189.68
2023-04-07T01:36:53.998Z,195.31
2023-04-07T01:37:53.958Z,193.62
2023-04-07T01:38:53.979Z,186.26
2023-04-07T01:39:53.989Z,184.18
2023-04-07T01:40:54.018Z,182.97
2023-04-07T01:41:54.056Z,182.39
2023-04-07T01:42:54.055Z,182.13
2023-04-07T01:43:54.248Z,181.45
2023-04-07T01:44:54.097Z,181.03
2023-04-07T01:45:54.121Z,185.51
2023-04-07T01:46:54.201Z,186.61
2023-04-07T01:47:54.166Z,185.44
2023-04-07T01:48:54.171Z,185.55
2023-04-07T01:49:54.178Z,191.97
2023-04-07T01:50:54.208Z,196.96
2023-04-07T01:51:54.246Z,197.52
2023-04-07T01:52:54.248Z,197.73
2023-04-07T01:53:54.409Z,198.51
2023-04-07T01:54:54.306Z,200.73
2023-04-07T01:55:54.360Z,202.00
2023-04-07T01:56:54.388Z,205.80
2023-04-07T01:57:54.413Z,209.26
2023-04-07T01:58:54.436Z,213.59
2023-04-07T01:59:54.458Z,216.47
2023-04-07T02:00:54.514Z,219.73
2023-04-07T02:01:54.564Z,220.62
2023-04-07T02:02:54.588Z,220.68
2023-04-07T02:03:54.827Z,222.45
2023-04-07T02:04:54.570Z,223.21
2023-04-07T02:05:54.573Z,220.84
2023-04-07T02:06:54.616Z,218.87
2023-04-07T02:07:54.707Z,219.88
2023-04-07T02:08:54.643Z,220.42
2023-04-07T02:09:54.689Z,224.94
2023-04-07T02:10:54.725Z,229.88
2023-04-07T02:11:54.740Z,232.47
2023-04-07T02:12:54.795Z,233.55
2023-04-07T02:13:55.113Z,237.01
2023-04-07T02:14:54.905Z,240.09
2023-04-07T02:15:54.944Z,242.97
2023-04-07T02:16:55.059Z,245.65
2023-04-07T02:17:55.108Z,246.88
2023-04-07T02:18:55.136Z,246.59
2023-04-07T02:19:55.198Z,241.18
2023-04-07T02:20:55.231Z,238.06
2023-04-07T02:21:55.278Z,239.80
2023-04-07T02:22:55.329Z,240.74
2023-04-07T02:23:55.564Z,242.16
2023-04-07T02:24:55.430Z,244.20
2023-04-07T02:25:55.480Z,243.89
2023-04-07T02:26:55.510Z,244.66
2023-04-07T02:27:55.556Z,243.40
2023-04-07T02:28:55.610Z,242.18
2023-04-07T02:29:55.611Z,240.11
2023-04-07T02:30:55.788Z,238.05
2023-04-07T02:31:55.688Z,235.27
2023-04-07T02:32:55.692Z,231.76
2023-04-07T02:33:55.835Z,230.94
2023-04-07T02:34:55.719Z,230.99
2023-04-07T02:35:55.747Z,230.00
2023-04-07T02:36:55.830Z,229.68
2023-04-07T02:37:55.766Z,230.42
2023-04-07T02:38:55.818Z,230.79
2023-04-07T02:39:55.854Z,233.06
2023-04-07T02:40:55.857Z,235.21
2023-04-07T02:41:55.860Z,236.38
2023-04-07T02:42:55.906Z,234.61
2023-04-07T02:43:56.164Z,235.69
2023-04-07T02:44:55.926Z,237.77
2023-04-07T02:45:55.958Z,239.50
2023-04-07T02:46:55.947Z,242.01
2023-04-07T02:47:56.002Z,245.49
2023-04-07T02:48:55.991Z,248.61
2023-04-07T02:49:56.028Z,248.97
2023-04-07T02:50:56.033Z,245.97
2023-04-07T02:51:56.027Z,242.49
2023-04-07T02:52:56.016Z,242.45
2023-04-07T02:53:56.354Z,241.95
2023-04-07T02:54:56.037Z,242.20
2023-04-07T02:55:56.036Z,242.85
2023-04-07T02:56:56.035Z,245.16
2023-04-07T02:57:56.022Z,246.97
2023-04-07T02:58:56.011Z,245.29
2023-04-07T02:59:56.016Z,242.47
2023-04-07T03:00:56.068Z,240.19
2023-04-07T03:01:56.212Z,238.86
2023-04-07T03:02:56.136Z,238.70
2023-04-07T03:03:56.360Z,241.75
2023-04-07T03:04:56.126Z,252.09
2023-04-07T03:05:56.149Z,254.21
2023-04-07T03:06:56.175Z,245.96
2023-04-07T03:07:56.192Z,236.74
2023-04-07T03:08:56.223Z,226.41
2023-04-07T03:09:56.223Z,220.61
2023-04-07T03:10:56.249Z,215.59
2023-04-07T03:11:56.283Z,213.16
2023-04-07T03:12:56.286Z,211.12
2023-04-07T03:13:56.307Z,205.31
2023-04-07T03:14:56.342Z,201.51
2023-04-07T03:15:56.400Z,197.77
2023-04-07T03:16:56.468Z,197.08
2023-04-07T03:17:56.457Z,197.78
2023-04-07T03:18:56.479Z,199.15
2023-04-07T03:19:56.575Z,200.55
2023-04-07T03:20:56.532Z,204.14
2023-04-07T03:21:56.536Z,200.52
2023-04-07T03:22:56.573Z,196.02
2023-04-07T03:23:56.609Z,193.27
2023-04-07T03:24:56.672Z,193.68
2023-04-07T03:25:56.676Z,196.24
2023-04-07T03:26:56.700Z,195.71
2023-04-07T03:27:56.716Z,195.87
2023-04-07T03:28:56.745Z,199.04
2023-04-07T03:29:56.778Z,201.83
2023-04-07T03:30:56.859Z,203.04
2023-04-07T03:31:56.881Z,205.14
2023-04-07T03:32:56.916Z,205.93
2023-04-07T03:33:56.930Z,206.84
2023-04-07T03:34:56.946Z,209.95
2023-04-07T03:35:56.997Z,207.40
2023-04-07T03:36:57.027Z,204.68
2023-04-07T03:37:57.068Z,204.02
2023-04-07T03:38:57.084Z,202.63
2023-04-07T03:39:57.132Z,203.06
2023-04-07T03:40:57.163Z,205.08
2023-04-07T03:41:57.200Z,209.21
2023-04-07T03:42:57.233Z,212.89
2023-04-07T03:43:57.283Z,216.56
2023-04-07T03:44:57.318Z,221.41
2023-04-07T03:45:57.366Z,227.48
2023-04-07T03:46:57.385Z,232.42
2023-04-07T03:47:57.479Z,236.08
2023-04-07T03:48:57.469Z,237.90
2023-04-07T03:49:57.512Z,239.69
2023-04-07T03:50:57.599Z,239.29
2023-04-07T03:51:57.605Z,238.39
2023-04-07T03:52:57.661Z,237.84
2023-04-07T03:53:57.718Z,238.38
2023-04-07T03:54:57.804Z,238.95
2023-04-07T03:55:57.865Z,238.77
2023-04-07T03:56:57.861Z,238.84
2023-04-07T03:57:57.908Z,240.45
2023-04-07T03:58:57.969Z,242.09
2023-04-07T03:59:58.007Z,243.01
2023-04-07T04:00:58.063Z,243.42
2023-04-07T04:01:58.209Z,244.98
2023-04-07T04:02:58.226Z,245.94
2023-04-07T04:03:58.523Z,246.32
2023-04-07T04:04:58.278Z,246.26
2023-04-07T04:05:58.293Z,246.19
2023-04-07T04:06:58.353Z,246.87
2023-04-07T04:07:58.400Z,246.82
2023-04-07T04:08:58.422Z,246.77
2023-04-07T04:09:58.462Z,248.10
2023-04-07T04:10:58.515Z,248.85
2023-04-07T04:11:58.568Z,250.00
2023-04-07T04:12:58.601Z,249.96
2023-04-07T04:13:58.647Z,249.77
2023-04-07T04:14:58.722Z,248.61
2023-04-07T04:15:58.783Z,246.90
2023-04-07T04:16:58.795Z,244.73
2023-04-07T04:17:58.900Z,242.33
2023-04-07T04:18:58.899Z,241.54
2023-04-07T04:19:58.949Z,240.22
2023-04-07T04:20:58.972Z,240.15
2023-04-07T04:21:59.029Z,241.04
2023-04-07T04:22:59.062Z,243.77
2023-04-07T04:23:59.126Z,242.95
2023-04-07T04:24:59.146Z,242.80
2023-04-07T04:25:59.178Z,241.88
2023-04-07T04:26:59.229Z,243.55
2023-04-07T04:27:59.249Z,250.19
2023-04-07T04:28:59.293Z,262.89
2023-04-07T04:29:59.336Z,266.06
2023-04-07T04:30:59.380Z,262.96
2023-04-07T04:31:59.375Z,258.78
2023-04-07T04:32:59.423Z,253.91
2023-04-07T04:33:59.432Z,252.71
2023-04-07T04:34:59.450Z,250.21
2023-04-07T04:35:59.472Z,246.39
2023-04-07T04:36:59.557Z,245.58
2023-04-07T04:37:59.524Z,247.93
2023-04-07T04:38:59.538Z,250.83
2023-04-07T04:39:59.562Z,251.38
2023-04-07T04:40:59.606Z,250.57
2023-04-07T04:41:59.601Z,248.21
2023-04-07T04:42:59.607Z,244.14
2023-04-07T04:43:59.627Z,242.58
2023-04-07T04:44:59.669Z,243.56
2023-04-07T04:45:59.681Z,242.69
2023-04-07T04:46:59.764Z,240.66
2023-04-07T04:47:59.755Z,239.29
2023-04-07T04:48:59.741Z,240.08
2023-04-07T04:49:59.741Z,239.91
2023-04-07T04:50:59.767Z,236.59
2023-04-07T04:51:59.785Z,233.22
2023-04-07T04:52:59.808Z,229.34
2023-04-07T04:53:59.808Z,225.81
2023-04-07T04:54:59.827Z,221.82
2023-04-07T04:55:59.826Z,219.79
2023-04-07T04:56:59.840Z,219.35
2023-04-07T04:57:59.835Z,219.20
2023-04-07T04:58:59.850Z,220.27
2023-04-07T04:59:59.843Z,221.43
2023-04-07T05:00:59.966Z,220.67
2023-04-07T05:01:59.970Z,221.76
2023-04-07T05:03:00.060Z,226.74
2023-04-07T05:04:00.185Z,233.81
2023-04-07T05:05:00.017Z,244.15
2023-04-07T05:05:59.887Z,250.56
2023-04-07T05:06:59.880Z,249.86
2023-04-07T05:07:59.915Z,248.23
2023-04-07T05:08:59.912Z,249.50
2023-04-07T05:09:59.930Z,249.88
2023-04-07T05:10:59.950Z,249.34
2023-04-07T05:11:59.977Z,250.00
2023-04-07T05:12:59.977Z,252.09
2023-04-07T05:14:00.030Z,253.79
2023-04-07T05:15:00.007Z,249.67
2023-04-07T05:16:00.085Z,250.22
2023-04-07T05:17:00.021Z,250.37
2023-04-07T05:18:00.086Z,251.00
2023-04-07T05:19:00.069Z,253.67
2023-04-07T05:20:00.068Z,255.79
2023-04-07T05:21:00.118Z,256.67
2023-04-07T05:22:00.122Z,259.52
2023-04-07T05:23:00.134Z,257.65
2023-04-07T05:24:00.143Z,257.95
2023-04-07T05:25:00.148Z,257.50
2023-04-07T05:26:00.137Z,255.47
2023-04-07T05:27:00.115Z,252.18
2023-04-07T05:28:00.144Z,248.81
2023-04-07T05:29:00.121Z,247.86
2023-04-07T05:30:00.146Z,246.48
2023-04-07T05:31:00.136Z,245.68
2023-04-07T05:32:00.233Z,244.94
2023-04-07T05:33:00.225Z,241.25
2023-04-07T05:34:00.151Z,239.71
2023-04-07T05:35:00.179Z,237.09
2023-04-07T05:36:00.237Z,235.63
2023-04-07T05:37:00.166Z,232.98
2023-04-07T05:38:00.163Z,230.14
2023-04-07T05:39:00.233Z,229.11
2023-04-07T05:40:00.221Z,229.99
2023-04-07T05:41:00.204Z,233.31
2023-04-07T05:42:00.201Z,235.54
2023-04-07T05:43:00.213Z,238.71
2023-04-07T05:44:00.201Z,239.60
2023-04-07T05:45:00.221Z,238.94
2023-04-07T05:46:00.280Z,237.72
2023-04-07T05:47:00.204Z,238.07
2023-04-07T05:48:00.332Z,239.51
2023-04-07T05:49:04.602Z,239.30
2023-04-07T05:50:01.212Z,237.44
2023-04-07T05:51:00.217Z,238.83
2023-04-07T05:52:00.183Z,239.29
2023-04-07T05:53:00.189Z,237.16
2023-04-07T05:54:00.210Z,236.66
2023-04-07T05:55:00.171Z,235.79
2023-04-07T05:56:00.177Z,235.36
2023-04-07T05:57:00.161Z,234.53
2023-04-07T05:58:00.167Z,234.41
2023-04-07T05:59:00.128Z,234.78
2023-04-07T06:00:00.145Z,237.25
2023-04-07T06:01:00.143Z,236.63
2023-04-07T06:02:00.187Z,234.24
2023-04-07T06:03:00.204Z,231.91
2023-04-07T06:04:00.216Z,230.63
2023-04-07T06:05:00.182Z,230.57
2023-04-07T06:06:00.117Z,229.74
2023-04-07T06:07:00.119Z,228.34
2023-04-07T06:08:00.100Z,227.20
2023-04-07T06:09:00.095Z,219.37
2023-04-07T06:10:00.061Z,211.80
2023-04-07T06:11:00.046Z,208.89
2023-04-07T06:12:00.044Z,208.59
2023-04-07T06:13:00.041Z,209.18
2023-04-07T06:14:00.056Z,210.26
2023-04-07T06:15:00.041Z,211.28
2023-04-07T06:16:00.020Z,211.22
2023-04-07T06:17:00.082Z,209.88
2023-04-07T06:18:00.067Z,208.65
2023-04-07T06:18:59.988Z,208.76
2023-04-07T06:19:59.988Z,206.94
2023-04-07T06:20:59.985Z,206.32
2023-04-07T06:21:59.991Z,205.01
2023-04-07T06:22:59.986Z,204.47
2023-04-07T06:23:59.957Z,205.03
2023-04-07T06:24:59.974Z,206.99
2023-04-07T06:25:59.974Z,206.49
2023-04-07T06:26:59.997Z,207.85
2023-04-07T06:28:00.039Z,210.64
2023-04-07T06:29:00.004Z,213.07
2023-04-07T06:30:00.013Z,217.76
2023-04-07T06:31:00.196Z,221.40
2023-04-07T06:32:00.003Z,223.26
2023-04-07T06:33:00.110Z,223.58
2023-04-07T06:34:00.036Z,222.01
2023-04-07T06:35:00.038Z,220.22
2023-04-07T06:36:00.033Z,216.34
2023-04-07T06:37:00.166Z,215.32
2023-04-07T06:38:00.048Z,213.41
2023-04-07T06:39:00.036Z,211.20
2023-04-07T06:40:00.071Z,209.96
2023-04-07T06:41:00.062Z,206.83
2023-04-07T06:42:00.058Z,203.43
2023-04-07T06:43:00.107Z,202.55
2023-04-07T06:44:00.128Z,200.02
2023-04-07T06:45:00.150Z,197.77
2023-04-07T06:46:00.203Z,194.64
2023-04-07T06:47:00.215Z,193.60
2023-04-07T06:48:00.256Z,194.73
2023-04-07T06:49:00.465Z,192.79
2023-04-07T06:50:00.306Z,190.53
2023-04-07T06:51:00.276Z,189.51
2023-04-07T06:52:00.273Z,188.67
2023-04-07T06:53:00.276Z,189.21
2023-04-07T06:54:00.329Z,189.52
2023-04-07T06:55:00.283Z,190.89
2023-04-07T06:56:00.360Z,192.27
2023-04-07T06:57:00.353Z,191.77
2023-04-07T06:58:00.379Z,192.41
2023-04-07T06:59:00.421Z,192.51
2023-04-07T07:00:00.446Z,189.55
2023-04-07T07:01:00.493Z,192.84
2023-04-07T07:02:00.574Z,194.80
2023-04-07T07:03:00.538Z,193.19
2023-04-07T07:04:00.514Z,197.90
2023-04-07T07:05:00.467Z,202.61
2023-04-07T07:06:00.522Z,203.90
2023-04-07T07:07:00.483Z,200.29
2023-04-07T07:08:00.483Z,188.76
2023-04-07T07:09:00.487Z,179.90
2023-04-07T07:10:00.485Z,177.87
2023-04-07T07:11:00.535Z,175.40
2023-04-07T07:12:01.587Z,177.32
2023-04-07T07:13:00.689Z,177.88
2023-04-07T07:14:00.725Z,169.11
2023-04-07T07:15:00.775Z,156.19
2023-04-07T07:16:00.858Z,153.69
2023-04-07T07:17:00.859Z,149.71
2023-04-07T07:18:00.949Z,148.16
2023-04-07T07:19:00.934Z,151.21
2023-04-07T07:20:00.957Z,157.99
2023-04-07T07:21:00.985Z,162.81
2023-04-07T07:22:01.004Z,163.71
2023-04-07T07:23:01.024Z,161.89
2023-04-07T07:24:01.074Z,161.83
2023-04-07T07:25:01.116Z,157.83
2023-04-07T07:26:01.121Z,157.13
2023-04-07T07:27:01.147Z,155.26
2023-04-07T07:28:01.157Z,156.34
2023-04-07T07:29:01.180Z,159.70
2023-04-07T07:30:01.229Z,157.74
2023-04-07T07:31:01.279Z,155.31
2023-04-07T07:32:01.240Z,156.27
2023-04-07T07:33:01.275Z,158.55
2023-04-07T07:34:01.267Z,157.13
2023-04-07T07:35:01.557Z,156.02
2023-04-07T07:36:01.260Z,154.71
2023-04-07T07:37:01.264Z,152.50
2023-04-07T07:38:01.259Z,149.60
2023-04-07T07:39:01.269Z,147.66
2023-04-07T07:40:01.241Z,147.18
2023-04-07T07:41:01.259Z,147.71
2023-04-07T07:42:01.278Z,143.31
2023-04-07T07:43:01.323Z,143.37
2023-04-07T07:44:01.321Z,144.88
2023-04-07T07:45:01.348Z,147.15
2023-04-07T07:46:01.442Z,149.18
2023-04-07T07:47:01.415Z,148.51
2023-04-07T07:48:01.480Z,147.93
2023-04-07T07:49:01.662Z,145.89
2023-04-07T07:50:01.516Z,143.21
2023-04-07T07:51:01.540Z,136.13
2023-04-07T07:52:01.566Z,120.83
2023-04-07T07:53:01.601Z,114.57
2023-04-07T07:54:01.613Z,112.75
2023-04-07T07:55:01.660Z,117.10
2023-04-07T07:56:01.700Z,116.19
2023-04-07T07:57:01.783Z,113.71
2023-04-07T07:58:01.828Z,110.01
2023-04-07T07:59:01.894Z,109.69
2023-04-07T08:00:01.977Z,109.83
2023-04-07T08:01:02.026Z,109.65
2023-04-07T08:02:02.103Z,110.12
2023-04-07T08:03:02.181Z,108.33
2023-04-07T08:04:02.437Z,106.86
2023-04-07T08:05:02.332Z,106.19
2023-04-07T08:06:02.318Z,101.70
2023-04-07T08:07:02.354Z,94.66
2023-04-07T08:08:02.419Z,91.62
2023-04-07T08:09:02.454Z,91.06
2023-04-07T08:10:02.528Z,91.96
2023-04-07T08:11:02.567Z,91.77
2023-04-07T08:12:02.613Z,83.26
2023-04-07T08:13:02.626Z,78.62
2023-04-07T08:14:02.654Z,76.77
2023-04-07T08:15:02.682Z,71.26
2023-04-07T08:16:02.704Z,69.32
2023-04-07T08:17:02.676Z,68.80
2023-04-07T08:18:02.700Z,70.50
2023-04-07T08:19:02.700Z,71.83
2023-04-07T08:20:02.707Z,73.73
2023-04-07T08:21:02.728Z,74.98
2023-04-07T08:22:02.705Z,76.95
2023-04-07T08:23:02.707Z,83.46
2023-04-07T08:24:02.744Z,87.08
2023-04-07T08:25:02.773Z,86.82
2023-04-07T08:26:02.794Z,82.45
2023-04-07T08:27:02.818Z,78.53
2023-04-07T08:28:02.853Z,73.54
2023-04-07T08:29:02.855Z,70.52
2023-04-07T08:30:02.882Z,66.56
2023-04-07T08:31:02.892Z,68.51
2023-04-07T08:32:02.884Z,70.23
2023-04-07T08:33:02.931Z,73.50
2023-04-07T08:34:02.893Z,76.40
2023-04-07T08:35:02.916Z,72.82
2023-04-07T08:36:02.948Z,66.13
2023-04-07T08:37:02.913Z,61.68
2023-04-07T08:38:02.910Z,61.43
2023-04-07T08:39:02.922Z,61.38
2023-04-07T08:40:02.925Z,60.35
2023-04-07T08:41:02.952Z,57.14
2023-04-07T08:42:02.962Z,55.33
2023-04-07T08:43:02.944Z,54.51
2023-04-07T08:44:03.014Z,52.94
2023-04-07T08:45:03.047Z,51.64
2023-04-07T08:46:03.116Z,48.96
2023-04-07T08:47:03.204Z,49.48
2023-04-07T08:48:03.248Z,52.53
2023-04-07T08:49:03.280Z,53.31
2023-04-07T08:50:03.333Z,53.85
2023-04-07T08:51:03.383Z,53.37
2023-04-07T08:52:05.358Z,52.14
2023-04-07T08:53:04.448Z,49.88
2023-04-07T08:54:03.518Z,48.17
2023-04-07T08:55:03.512Z,47.24
2023-04-07T08:56:03.546Z,44.82
2023-04-07T08:57:03.605Z,44.36
2023-04-07T08:58:03.636Z,43.79
2023-04-07T08:59:03.655Z,45.51
2023-04-07T09:00:03.715Z,49.45
2023-04-07T09:01:03.771Z,53.79
2023-04-07T09:02:03.812Z,54.64
2023-04-07T09:03:03.880Z,50.90
2023-04-07T09:04:03.849Z,48.16
2023-04-07T09:05:03.875Z,44.81
2023-04-07T09:06:03.913Z,44.15
2023-04-07T09:07:03.894Z,43.97
2023-04-07T09:08:03.916Z,43.21
2023-04-07T09:09:03.909Z,43.98
2023-04-07T09:10:03.919Z,43.07
2023-04-07T09:11:03.939Z,39.28
2023-04-07T09:12:03.915Z,35.50
2023-04-07T09:13:03.948Z,34.14
2023-04-07T09:14:03.986Z,34.62
2023-04-07T09:15:03.986Z,34.28
2023-04-07T09:16:04.068Z,36.74
2023-04-07T09:17:04.041Z,43.72
2023-04-07T09:18:04.060Z,41.60
2023-04-07T09:19:04.052Z,30.88
2023-04-07T09:20:04.071Z,24.37
2023-04-07T09:21:04.093Z,21.74
2023-04-07T09:22:04.110Z,22.29
2023-04-07T09:23:04.121Z,25.19
2023-04-07T09:24:04.135Z,25.21
2023-04-07T09:25:04.163Z,25.19
2023-04-07T09:26:04.188Z,28.79
2023-04-07T09:27:04.191Z,39.35
2023-04-07T09:28:04.216Z,39.46
2023-04-07T09:29:04.204Z,33.28
2023-04-07T09:30:04.200Z,30.62
2023-04-07T09:31:04.236Z,33.87
2023-04-07T09:32:04.315Z,35.89
2023-04-07T09:33:04.266Z,38.53
2023-04-07T09:34:04.280Z,40.52
2023-04-07T09:35:04.281Z,43.45
2023-04-07T09:36:04.307Z,48.24
2023-04-07T09:37:04.309Z,51.11
2023-04-07T09:38:04.371Z,51.02
2023-04-07T09:39:04.417Z,50.09
2023-04-07T09:40:04.467Z,50.27
2023-04-07T09:41:04.557Z,49.80
2023-04-07T09:42:04.563Z,46.93
2023-04-07T09:43:04.620Z,43.19
2023-04-07T09:44:04.689Z,42.40
2023-04-07T09:45:04.723Z,42.26
2023-04-07T09:46:04.783Z,41.30
2023-04-07T09:47:04.840Z,37.11
2023-04-07T09:48:04.913Z,36.41
2023-04-07T09:49:04.935Z,38.11
2023-04-07T09:50:04.993Z,36.02
2023-04-07T09:51:05.063Z,36.43
2023-04-07T09:52:05.176Z,40.11
2023-04-07T09:53:05.196Z,43.62
2023-04-07T09:54:05.200Z,44.37
2023-04-07T09:55:05.249Z,45.31
2023-04-07T09:56:05.327Z,48.85
2023-04-07T09:57:05.387Z,51.25
2023-04-07T09:58:05.430Z,52.95
2023-04-07T09:59:05.493Z,57.86
2023-04-07T10:00:05.577Z,58.18
2023-04-07T10:01:05.651Z,57.50
2023-04-07T10:02:05.791Z,58.21
2023-04-07T10:03:05.928Z,60.23
2023-04-07T10:04:05.813Z,59.63
2023-04-07T10:05:05.812Z,56.90
2023-04-07T10:06:05.870Z,53.17
2023-04-07T10:07:05.934Z,49.03
2023-04-07T10:08:05.973Z,47.55
2023-04-07T10:09:06.047Z,48.01
2023-04-07T10:10:06.091Z,49.65
2023-04-07T10:11:06.140Z,50.43
2023-04-07T10:12:06.204Z,49.10
2023-04-07T10:13:06.288Z,49.49
2023-04-07T10:14:06.310Z,51.52
2023-04-07T10:15:06.375Z,52.05
2023-04-07T10:16:06.408Z,51.92
2023-04-07T10:17:06.471Z,55.33
2023-04-07T10:18:06.523Z,55.66
2023-04-07T10:19:06.534Z,58.23
2023-04-07T10:20:06.576Z,61.54
2023-04-07T10:21:06.622Z,61.82
2023-04-07T10:22:06.658Z,59.55
2023-04-07T10:23:06.696Z,58.86
2023-04-07T10:24:06.771Z,60.20
2023-04-07T10:25:06.792Z,61.28
2023-04-07T10:26:06.862Z,59.46
2023-04-07T10:27:06.899Z,60.00
2023-04-07T10:28:06.950Z,64.56
2023-04-07T10:29:06.965Z,67.47
2023-04-07T10:30:07.020Z,67.15
2023-04-07T10:31:07.063Z,66.59
2023-04-07T10:32:07.141Z,65.13
2023-04-07T10:33:07.161Z,60.56
2023-04-07T10:34:07.139Z,58.37
2023-04-07T10:35:07.155Z,56.82
2023-04-07T10:36:07.281Z,53.43
2023-04-07T10:37:07.165Z,52.18
2023-04-07T10:38:07.342Z,53.29
2023-04-07T10:39:07.225Z,54.10
2023-04-07T10:40:07.208Z,54.38
2023-04-07T10:41:07.235Z,64.48
2023-04-07T10:42:07.231Z,67.83
2023-04-07T10:43:07.234Z,66.94
2023-04-07T10:44:07.236Z,59.71
2023-04-07T10:45:07.227Z,56.41
2023-04-07T10:46:07.260Z,55.43
2023-04-07T10:47:07.211Z,57.29
2023-04-07T10:48:07.265Z,60.73
2023-04-07T10:49:07.223Z,59.67
2023-04-07T10:50:07.250Z,56.47
2023-04-07T10:51:07.271Z,54.35
2023-04-07T10:52:07.282Z,54.55
2023-04-07T10:53:07.270Z,53.44
2023-04-07T10:54:07.337Z,52.62
2023-04-07T10:55:07.396Z,57.61
2023-04-07T10:56:07.452Z,58.54
2023-04-07T10:57:07.518Z,54.42
2023-04-07T10:58:07.575Z,52.95
2023-04-07T10:59:07.619Z,52.97
2023-04-07T11:00:07.693Z,54.69
2023-04-07T11:01:07.791Z,55.91
2023-04-07T11:02:07.856Z,59.37
2023-04-07T11:03:08.122Z,59.53
2023-04-07T11:04:08.018Z,59.68
2023-04-07T11:05:07.968Z,58.66
2023-04-07T11:06:07.982Z,56.32
2023-04-07T11:07:08.005Z,51.36
2023-04-07T11:08:08.039Z,46.40
2023-04-07T11:09:08.068Z,43.08
2023-04-07T11:10:08.091Z,40.44
2023-04-07T11:11:08.131Z,42.46
2023-04-07T11:12:08.154Z,43.51
2023-04-07T11:13:08.183Z,48.51
2023-04-07T11:14:08.187Z,48.70
2023-04-07T11:15:08.201Z,48.89
2023-04-07T11:16:08.282Z,46.64
2023-04-07T11:17:08.278Z,45.44
2023-04-07T11:18:08.281Z,46.07
2023-04-07T11:19:08.299Z,48.86
2023-04-07T11:20:08.301Z,43.90
2023-04-07T11:21:08.310Z,36.66
2023-04-07T11:22:13.815Z,37.00
2023-04-07T11:23:09.306Z,37.18
2023-04-07T11:24:08.304Z,38.17
2023-04-07T11:25:08.310Z,39.80
2023-04-07T11:26:08.292Z,41.17
2023-04-07T11:27:08.298Z,41.07
2023-04-07T11:28:08.289Z,40.56
2023-04-07T11:29:08.270Z,43.35
2023-04-07T11:30:08.340Z,47.54
2023-04-07T11:31:08.297Z,46.62
2023-04-07T11:32:08.269Z,44.72
2023-04-07T11:33:08.241Z,42.32
2023-04-07T11:34:08.249Z,44.79
2023-04-07T11:35:08.328Z,47.47
2023-04-07T11:36:08.284Z,46.44
2023-04-07T11:37:08.226Z,45.53
2023-04-07T11:38:08.205Z,45.61
2023-04-07T11:39:08.213Z,42.20
2023-04-07T11:40:08.277Z,40.91
2023-04-07T11:41:08.189Z,43.06
2023-04-07T11:42:08.187Z,41.05
2023-04-07T11:43:08.217Z,42.82
2023-04-07T11:44:08.168Z,38.05
2023-04-07T11:45:08.491Z,34.59
2023-04-07T11:46:08.253Z,32.74
2023-04-07T11:47:08.185Z,31.66
2023-04-07T11:48:08.201Z,35.14
2023-04-07T11:49:08.133Z,37.96
2023-04-07T11:50:08.178Z,37.01
2023-04-07T11:51:08.167Z,36.73
2023-04-07T11:52:08.171Z,35.61
2023-04-07T11:53:08.217Z,33.56
2023-04-07T11:54:08.213Z,32.87
2023-04-07T11:55:08.211Z,32.52
2023-04-07T11:56:08.261Z,30.66
2023-04-07T11:57:08.259Z,30.56
2023-04-07T11:58:08.259Z,29.29
2023-04-07T11:59:08.287Z,27.98
2023-04-07T12:00:08.303Z,29.93
2023-04-07T12:01:08.320Z,35.32
2023-04-07T12:02:08.490Z,38.35
2023-04-07T12:03:08.604Z,39.20
2023-04-07T12:04:08.675Z,39.92
2023-04-07T12:05:08.572Z,40.17
2023-04-07T12:06:08.433Z,38.67
2023-04-07T12:07:08.443Z,42.14
2023-04-07T12:08:08.461Z,54.39
2023-04-07T12:09:08.496Z,63.69
2023-04-07T12:10:08.500Z,73.28
2023-04-07T12:11:08.520Z,66.32
2023-04-07T12:12:08.623Z,50.36
2023-04-07T12:13:08.569Z,42.43
2023-04-07T12:14:08.581Z,42.40
2023-04-07T12:15:08.592Z,46.35
2023-04-07T12:16:08.626Z,48.97
2023-04-07T12:17:08.636Z,41.33
2023-04-07T12:18:08.647Z,37.55
2023-04-07T12:19:08.658Z,34.10
2023-04-07T12:20:08.696Z,34.33
2023-04-07T12:21:08.716Z,27.96
2023-04-07T12:22:08.730Z,26.01
2023-04-07T12:23:08.740Z,25.48
2023-04-07T12:24:08.759Z,28.21
2023-04-07T12:25:08.804Z,25.51
2023-04-07T12:26:08.787Z,22.86
2023-04-07T12:27:08.782Z,22.55
2023-04-07T12:28:08.774Z,21.76
2023-04-07T12:29:08.842Z,23.41
2023-04-07T12:30:08.818Z,28.94
2023-04-07T12:31:08.833Z,32.96
2023-04-07T12:32:08.907Z,36.86
2023-04-07T12:33:08.842Z,39.25
2023-04-07T12:34:08.859Z,41.93
2023-04-07T12:35:08.872Z,41.00
2023-04-07T12:36:08.921Z,38.88
2023-04-07T12:37:08.899Z,32.90
2023-04-07T12:38:08.926Z,31.60